sensor_id;sensor_type;location;lat;lon;timestamp;temperature;humidity
68922;DHT22;55959;51.244;5.724;2024-02-14T00:00:19;12.10;73.30
68922;DHT22;55959;51.244;5.724;2024-02-14T00:02:46;12.10;73.30
68922;DHT22;55959;51.244;5.724;2024-02-14T00:05:15;12.10;73.50
68922;DHT22;55959;51.244;5.724;2024-02-14T00:07:41;12.10;73.50
68922;DHT22;55959;51.244;5.724;2024-02-14T00:10:07;12.10;73.60
68922;DHT22;55959;51.244;5.724;2024-02-14T00:12:35;12.10;73.80
68922;DHT22;55959;51.244;5.724;2024-02-14T00:15:07;12.10;74.00
68922;DHT22;55959;51.244;5.724;2024-02-14T00:17:34;12.10;74.10
68922;DHT22;55959;51.244;5.724;2024-02-14T00:20:03;12.10;74.10
68922;DHT22;55959;51.244;5.724;2024-02-14T00:22:30;12.10;74.30
68922;DHT22;55959;51.244;5.724;2024-02-14T00:24:56;12.10;74.40
68922;DHT22;55959;51.244;5.724;2024-02-14T00:27:22;12.10;74.50
68922;DHT22;55959;51.244;5.724;2024-02-14T00:29:47;12.10;74.50
68922;DHT22;55959;51.244;5.724;2024-02-14T00:32:14;12.10;74.50
68922;DHT22;55959;51.244;5.724;2024-02-14T00:34:40;12.10;74.60
68922;DHT22;55959;51.244;5.724;2024-02-14T00:37:05;12.10;74.70
68922;DHT22;55959;51.244;5.724;2024-02-14T00:39:31;12.10;74.70
68922;DHT22;55959;51.244;5.724;2024-02-14T00:41:57;12.10;74.70
68922;DHT22;55959;51.244;5.724;2024-02-14T00:44:23;12.10;74.70
68922;DHT22;55959;51.244;5.724;2024-02-14T00:46:48;12.10;74.80
68922;DHT22;55959;51.244;5.724;2024-02-14T00:49:14;12.10;74.70
68922;DHT22;55959;51.244;5.724;2024-02-14T00:51:40;12.20;74.80
68922;DHT22;55959;51.244;5.724;2024-02-14T00:54:06;12.10;74.70
68922;DHT22;55959;51.244;5.724;2024-02-14T00:56:33;12.20;74.80
68922;DHT22;55959;51.244;5.724;2024-02-14T00:58:59;12.20;74.70
68922;DHT22;55959;51.244;5.724;2024-02-14T01:01:26;12.20;74.60
68922;DHT22;55959;51.244;5.724;2024-02-14T01:03:52;12.20;74.60
68922;DHT22;55959;51.244;5.724;2024-02-14T01:06:18;12.20;74.50
68922;DHT22;55959;51.244;5.724;2024-02-14T01:08:45;12.30;74.60
68922;DHT22;55959;51.244;5.724;2024-02-14T01:11:11;12.30;74.50
68922;DHT22;55959;51.244;5.724;2024-02-14T01:13:37;12.30;74.40
68922;DHT22;55959;51.244;5.724;2024-02-14T01:16:03;12.30;74.40
68922;DHT22;55959;51.244;5.724;2024-02-14T01:18:30;12.30;74.30
68922;DHT22;55959;51.244;5.724;2024-02-14T01:20:57;12.30;74.30
68922;DHT22;55959;51.244;5.724;2024-02-14T01:23:24;12.30;74.30
68922;DHT22;55959;51.244;5.724;2024-02-14T01:25:50;12.30;74.20
68922;DHT22;55959;51.244;5.724;2024-02-14T01:28:16;12.30;75.10
68922;DHT22;55959;51.244;5.724;2024-02-14T01:30:43;12.40;74.30
68922;DHT22;55959;51.244;5.724;2024-02-14T01:33:08;12.40;74.30
68922;DHT22;55959;51.244;5.724;2024-02-14T01:35:34;12.40;74.20
68922;DHT22;55959;51.244;5.724;2024-02-14T01:38:00;12.40;74.10
68922;DHT22;55959;51.244;5.724;2024-02-14T01:40:28;12.40;74.10
68922;DHT22;55959;51.244;5.724;2024-02-14T01:42:54;12.40;74.10
68922;DHT22;55959;51.244;5.724;2024-02-14T01:45:21;12.40;74.10
68922;DHT22;55959;51.244;5.724;2024-02-14T01:47:48;12.50;74.10
68922;DHT22;55959;51.244;5.724;2024-02-14T01:50:15;12.50;74.00
68922;DHT22;55959;51.244;5.724;2024-02-14T01:52:41;12.50;74.10
68922;DHT22;55959;51.244;5.724;2024-02-14T01:55:09;12.50;75.00
68922;DHT22;55959;51.244;5.724;2024-02-14T01:57:38;12.50;74.10
68922;DHT22;55959;51.244;5.724;2024-02-14T02:00:06;12.50;74.20
68922;DHT22;55959;51.244;5.724;2024-02-14T02:02:35;12.50;74.10
68922;DHT22;55959;51.244;5.724;2024-02-14T02:05:05;12.50;74.30
68922;DHT22;55959;51.244;5.724;2024-02-14T02:07:32;12.50;74.10
68922;DHT22;55959;51.244;5.724;2024-02-14T02:09:58;12.50;74.20
68922;DHT22;55959;51.244;5.724;2024-02-14T02:12:24;12.50;74.30
68922;DHT22;55959;51.244;5.724;2024-02-14T02:14:53;12.60;74.30
68922;DHT22;55959;51.244;5.724;2024-02-14T02:17:19;12.60;74.40
68922;DHT22;55959;51.244;5.724;2024-02-14T02:19:46;12.60;74.50
68922;DHT22;55959;51.244;5.724;2024-02-14T02:22:12;12.60;74.50
68922;DHT22;55959;51.244;5.724;2024-02-14T02:24:38;12.60;74.70
68922;DHT22;55959;51.244;5.724;2024-02-14T02:27:04;12.60;74.90
68922;DHT22;55959;51.244;5.724;2024-02-14T02:29:30;12.60;74.90
68922;DHT22;55959;51.244;5.724;2024-02-14T02:31:57;12.60;75.10
68922;DHT22;55959;51.244;5.724;2024-02-14T02:34:23;12.60;75.30
68922;DHT22;55959;51.244;5.724;2024-02-14T02:36:49;12.60;75.30
68922;DHT22;55959;51.244;5.724;2024-02-14T02:39:16;12.60;76.30
68922;DHT22;55959;51.244;5.724;2024-02-14T02:41:42;12.50;75.50
68922;DHT22;55959;51.244;5.724;2024-02-14T02:44:13;12.60;75.60
68922;DHT22;55959;51.244;5.724;2024-02-14T02:46:38;12.60;75.70
68922;DHT22;55959;51.244;5.724;2024-02-14T02:49:04;12.60;75.90
68922;DHT22;55959;51.244;5.724;2024-02-14T02:51:30;12.60;75.80
68922;DHT22;55959;51.244;5.724;2024-02-14T02:53:55;12.60;75.90
68922;DHT22;55959;51.244;5.724;2024-02-14T02:56:21;12.60;75.90
68922;DHT22;55959;51.244;5.724;2024-02-14T02:58:47;12.60;76.90
68922;DHT22;55959;51.244;5.724;2024-02-14T03:01:14;12.60;76.00
68922;DHT22;55959;51.244;5.724;2024-02-14T03:03:40;12.60;76.10
68922;DHT22;55959;51.244;5.724;2024-02-14T03:06:06;12.60;76.10
68922;DHT22;55959;51.244;5.724;2024-02-14T03:08:33;12.60;76.10
68922;DHT22;55959;51.244;5.724;2024-02-14T03:11:05;12.60;76.10
68922;DHT22;55959;51.244;5.724;2024-02-14T03:13:33;12.60;76.10
68922;DHT22;55959;51.244;5.724;2024-02-14T03:16:01;12.60;76.10
68922;DHT22;55959;51.244;5.724;2024-02-14T03:18:27;12.60;76.10
68922;DHT22;55959;51.244;5.724;2024-02-14T03:20:52;12.60;76.10
68922;DHT22;55959;51.244;5.724;2024-02-14T03:23:21;12.60;76.10
68922;DHT22;55959;51.244;5.724;2024-02-14T03:25:48;12.70;76.30
68922;DHT22;55959;51.244;5.724;2024-02-14T03:28:13;12.70;77.10
68922;DHT22;55959;51.244;5.724;2024-02-14T03:30:40;12.60;76.20
68922;DHT22;55959;51.244;5.724;2024-02-14T03:33:06;12.70;76.30
68922;DHT22;55959;51.244;5.724;2024-02-14T03:35:33;12.70;76.30
68922;DHT22;55959;51.244;5.724;2024-02-14T03:38:02;12.70;76.20
68922;DHT22;55959;51.244;5.724;2024-02-14T03:40:29;12.70;76.20
68922;DHT22;55959;51.244;5.724;2024-02-14T03:42:56;12.70;76.30
68922;DHT22;55959;51.244;5.724;2024-02-14T03:45:22;12.70;76.30
68922;DHT22;55959;51.244;5.724;2024-02-14T03:47:48;12.70;76.30
68922;DHT22;55959;51.244;5.724;2024-02-14T03:50:14;12.70;76.20
68922;DHT22;55959;51.244;5.724;2024-02-14T03:52:41;12.70;76.20
68922;DHT22;55959;51.244;5.724;2024-02-14T03:55:10;12.70;76.30
68922;DHT22;55959;51.244;5.724;2024-02-14T03:57:39;12.70;76.20
68922;DHT22;55959;51.244;5.724;2024-02-14T04:00:05;12.80;76.20
68922;DHT22;55959;51.244;5.724;2024-02-14T04:02:35;12.80;76.20
68922;DHT22;55959;51.244;5.724;2024-02-14T04:05:01;12.80;76.00
68922;DHT22;55959;51.244;5.724;2024-02-14T04:07:32;12.80;76.00
68922;DHT22;55959;51.244;5.724;2024-02-14T04:09:59;12.80;76.00
68922;DHT22;55959;51.244;5.724;2024-02-14T04:12:25;12.80;76.00
68922;DHT22;55959;51.244;5.724;2024-02-14T04:14:51;12.80;76.00
68922;DHT22;55959;51.244;5.724;2024-02-14T04:17:17;12.80;76.00
68922;DHT22;55959;51.244;5.724;2024-02-14T04:19:43;12.80;76.00
68922;DHT22;55959;51.244;5.724;2024-02-14T04:22:08;12.80;76.00
68922;DHT22;55959;51.244;5.724;2024-02-14T04:24:34;12.90;76.20
68922;DHT22;55959;51.244;5.724;2024-02-14T04:27:00;12.80;76.20
68922;DHT22;55959;51.244;5.724;2024-02-14T04:29:28;12.90;76.30
68922;DHT22;55959;51.244;5.724;2024-02-14T04:31:56;12.90;76.40
68922;DHT22;55959;51.244;5.724;2024-02-14T04:34:22;12.90;76.50
68922;DHT22;55959;51.244;5.724;2024-02-14T04:36:48;12.90;76.60
68922;DHT22;55959;51.244;5.724;2024-02-14T04:39:14;12.90;76.70
68922;DHT22;55959;51.244;5.724;2024-02-14T04:41:39;12.90;76.80
68922;DHT22;55959;51.244;5.724;2024-02-14T04:44:05;12.90;76.90
68922;DHT22;55959;51.244;5.724;2024-02-14T04:46:34;12.80;77.00
68922;DHT22;55959;51.244;5.724;2024-02-14T04:49:01;12.90;77.10
68922;DHT22;55959;51.244;5.724;2024-02-14T04:51:30;12.80;77.10
68922;DHT22;55959;51.244;5.724;2024-02-14T04:53:57;12.90;77.30
68922;DHT22;55959;51.244;5.724;2024-02-14T04:56:26;12.80;77.30
68922;DHT22;55959;51.244;5.724;2024-02-14T04:58:55;12.80;77.30
68922;DHT22;55959;51.244;5.724;2024-02-14T05:01:21;12.90;77.40
68922;DHT22;55959;51.244;5.724;2024-02-14T05:03:48;12.90;77.40
68922;DHT22;55959;51.244;5.724;2024-02-14T05:06:15;12.90;77.40
68922;DHT22;55959;51.244;5.724;2024-02-14T05:08:41;12.90;77.40
68922;DHT22;55959;51.244;5.724;2024-02-14T05:11:07;12.90;77.50
68922;DHT22;55959;51.244;5.724;2024-02-14T05:13:32;12.90;77.40
68922;DHT22;55959;51.244;5.724;2024-02-14T05:16:01;12.90;77.50
68922;DHT22;55959;51.244;5.724;2024-02-14T05:18:28;12.90;77.50
68922;DHT22;55959;51.244;5.724;2024-02-14T05:20:53;12.90;77.60
68922;DHT22;55959;51.244;5.724;2024-02-14T05:23:19;12.90;77.70
68922;DHT22;55959;51.244;5.724;2024-02-14T05:25:45;12.90;77.80
68922;DHT22;55959;51.244;5.724;2024-02-14T05:28:11;12.90;77.80
68922;DHT22;55959;51.244;5.724;2024-02-14T05:30:39;12.90;77.80
68922;DHT22;55959;51.244;5.724;2024-02-14T05:33:06;12.90;78.00
68922;DHT22;55959;51.244;5.724;2024-02-14T05:35:32;12.90;78.00
68922;DHT22;55959;51.244;5.724;2024-02-14T05:37:58;12.90;78.10
68922;DHT22;55959;51.244;5.724;2024-02-14T05:40:23;12.90;78.10
68922;DHT22;55959;51.244;5.724;2024-02-14T05:42:49;12.90;78.20
68922;DHT22;55959;51.244;5.724;2024-02-14T05:45:15;12.90;78.20
68922;DHT22;55959;51.244;5.724;2024-02-14T05:47:42;12.90;78.30
68922;DHT22;55959;51.244;5.724;2024-02-14T05:50:08;12.90;78.20
68922;DHT22;55959;51.244;5.724;2024-02-14T05:52:37;12.90;78.30
68922;DHT22;55959;51.244;5.724;2024-02-14T05:55:03;12.90;78.40
68922;DHT22;55959;51.244;5.724;2024-02-14T05:57:30;12.90;78.40
68922;DHT22;55959;51.244;5.724;2024-02-14T05:59:56;12.90;78.40
68922;DHT22;55959;51.244;5.724;2024-02-14T06:02:21;12.90;78.50
68922;DHT22;55959;51.244;5.724;2024-02-14T06:04:47;12.90;78.50
68922;DHT22;55959;51.244;5.724;2024-02-14T06:07:13;12.90;78.60
68922;DHT22;55959;51.244;5.724;2024-02-14T06:09:39;12.90;78.50
68922;DHT22;55959;51.244;5.724;2024-02-14T06:12:05;12.90;78.50
68922;DHT22;55959;51.244;5.724;2024-02-14T06:14:31;13.00;78.50
68922;DHT22;55959;51.244;5.724;2024-02-14T06:16:59;13.00;78.50
68922;DHT22;55959;51.244;5.724;2024-02-14T06:19:26;13.00;78.50
68922;DHT22;55959;51.244;5.724;2024-02-14T06:21:52;13.00;78.50
68922;DHT22;55959;51.244;5.724;2024-02-14T06:24:18;13.00;78.40
68922;DHT22;55959;51.244;5.724;2024-02-14T06:26:45;13.00;78.40
68922;DHT22;55959;51.244;5.724;2024-02-14T06:29:11;13.00;78.30
68922;DHT22;55959;51.244;5.724;2024-02-14T06:31:37;13.00;78.20
68922;DHT22;55959;51.244;5.724;2024-02-14T06:34:03;13.00;78.20
68922;DHT22;55959;51.244;5.724;2024-02-14T06:36:29;13.00;78.30
68922;DHT22;55959;51.244;5.724;2024-02-14T06:38:54;13.10;78.30
68922;DHT22;55959;51.244;5.724;2024-02-14T06:41:20;13.00;78.30
68922;DHT22;55959;51.244;5.724;2024-02-14T06:43:46;13.10;78.40
68922;DHT22;55959;51.244;5.724;2024-02-14T06:46:12;13.10;78.40
68922;DHT22;55959;51.244;5.724;2024-02-14T06:48:38;13.10;79.20
68922;DHT22;55959;51.244;5.724;2024-02-14T06:51:05;13.10;78.20
68922;DHT22;55959;51.244;5.724;2024-02-14T06:53:32;13.10;78.20
68922;DHT22;55959;51.244;5.724;2024-02-14T06:55:58;13.20;78.20
68922;DHT22;55959;51.244;5.724;2024-02-14T06:58:23;13.20;78.20
68922;DHT22;55959;51.244;5.724;2024-02-14T07:00:49;13.20;78.10
68922;DHT22;55959;51.244;5.724;2024-02-14T07:03:15;13.20;78.00
68922;DHT22;55959;51.244;5.724;2024-02-14T07:05:41;13.20;78.10
68922;DHT22;55959;51.244;5.724;2024-02-14T07:08:07;13.20;78.00
68922;DHT22;55959;51.244;5.724;2024-02-14T07:10:33;13.20;78.00
68922;DHT22;55959;51.244;5.724;2024-02-14T07:12:59;13.20;78.00
68922;DHT22;55959;51.244;5.724;2024-02-14T07:15:24;13.30;78.20
68922;DHT22;55959;51.244;5.724;2024-02-14T07:17:54;13.30;78.20
68922;DHT22;55959;51.244;5.724;2024-02-14T07:20:21;13.30;78.20
68922;DHT22;55959;51.244;5.724;2024-02-14T07:22:47;13.30;78.20
68922;DHT22;55959;51.244;5.724;2024-02-14T07:25:21;13.30;78.30
68922;DHT22;55959;51.244;5.724;2024-02-14T07:27:46;13.30;78.30
68922;DHT22;55959;51.244;5.724;2024-02-14T07:30:15;13.30;78.30
68922;DHT22;55959;51.244;5.724;2024-02-14T07:32:43;13.30;78.40
68922;DHT22;55959;51.244;5.724;2024-02-14T07:35:09;13.30;78.40
68922;DHT22;55959;51.244;5.724;2024-02-14T07:37:35;13.30;78.40
68922;DHT22;55959;51.244;5.724;2024-02-14T07:40:01;13.30;78.40
68922;DHT22;55959;51.244;5.724;2024-02-14T07:42:26;13.30;78.40
68922;DHT22;55959;51.244;5.724;2024-02-14T07:44:52;13.30;78.30
68922;DHT22;55959;51.244;5.724;2024-02-14T07:47:18;13.40;78.30
68922;DHT22;55959;51.244;5.724;2024-02-14T07:49:44;13.40;78.20
68922;DHT22;55959;51.244;5.724;2024-02-14T07:52:10;13.40;78.20
68922;DHT22;55959;51.244;5.724;2024-02-14T07:54:36;13.40;78.10
68922;DHT22;55959;51.244;5.724;2024-02-14T07:57:02;13.40;78.10
68922;DHT22;55959;51.244;5.724;2024-02-14T07:59:28;13.40;78.10
68922;DHT22;55959;51.244;5.724;2024-02-14T08:01:54;13.40;77.90
68922;DHT22;55959;51.244;5.724;2024-02-14T08:04:20;13.40;77.80
68922;DHT22;55959;51.244;5.724;2024-02-14T08:06:46;13.40;77.80
68922;DHT22;55959;51.244;5.724;2024-02-14T08:09:14;13.40;77.80
68922;DHT22;55959;51.244;5.724;2024-02-14T08:11:41;13.40;77.70
68922;DHT22;55959;51.244;5.724;2024-02-14T08:14:07;13.40;77.70
68922;DHT22;55959;51.244;5.724;2024-02-14T08:16:32;13.40;77.70
68922;DHT22;55959;51.244;5.724;2024-02-14T08:18:58;13.50;77.80
68922;DHT22;55959;51.244;5.724;2024-02-14T08:21:27;13.50;77.70
68922;DHT22;55959;51.244;5.724;2024-02-14T08:23:54;13.50;77.60
68922;DHT22;55959;51.244;5.724;2024-02-14T08:26:23;13.50;77.80
68922;DHT22;55959;51.244;5.724;2024-02-14T08:28:49;13.60;77.60
68922;DHT22;55959;51.244;5.724;2024-02-14T08:31:15;13.60;77.60
68922;DHT22;55959;51.244;5.724;2024-02-14T08:33:41;13.60;77.60
68922;DHT22;55959;51.244;5.724;2024-02-14T08:36:07;13.60;77.60
68922;DHT22;55959;51.244;5.724;2024-02-14T08:38:36;13.60;77.60
68922;DHT22;55959;51.244;5.724;2024-02-14T08:41:03;13.60;77.60
68922;DHT22;55959;51.244;5.724;2024-02-14T08:43:29;13.70;77.50
68922;DHT22;55959;51.244;5.724;2024-02-14T08:45:55;13.70;77.40
68922;DHT22;55959;51.244;5.724;2024-02-14T08:48:22;13.70;77.40
68922;DHT22;55959;51.244;5.724;2024-02-14T08:50:49;13.70;77.30
68922;DHT22;55959;51.244;5.724;2024-02-14T08:53:16;13.80;77.40
68922;DHT22;55959;51.244;5.724;2024-02-14T08:55:42;13.80;77.30
68922;DHT22;55959;51.244;5.724;2024-02-14T08:58:08;13.80;77.20
68922;DHT22;55959;51.244;5.724;2024-02-14T09:00:37;13.80;77.20
68922;DHT22;55959;51.244;5.724;2024-02-14T09:03:04;13.90;77.20
68922;DHT22;55959;51.244;5.724;2024-02-14T09:05:31;13.90;77.10
68922;DHT22;55959;51.244;5.724;2024-02-14T09:07:57;13.90;77.20
68922;DHT22;55959;51.244;5.724;2024-02-14T09:10:22;13.90;77.00
68922;DHT22;55959;51.244;5.724;2024-02-14T09:12:48;13.90;76.90
68922;DHT22;55959;51.244;5.724;2024-02-14T09:15:14;14.00;76.90
68922;DHT22;55959;51.244;5.724;2024-02-14T09:17:40;14.00;76.70
68922;DHT22;55959;51.244;5.724;2024-02-14T09:20:08;14.00;76.70
68922;DHT22;55959;51.244;5.724;2024-02-14T09:22:36;14.00;76.70
68922;DHT22;55959;51.244;5.724;2024-02-14T09:25:02;14.10;76.70
68922;DHT22;55959;51.244;5.724;2024-02-14T09:27:31;14.10;76.60
68922;DHT22;55959;51.244;5.724;2024-02-14T09:29:58;14.10;76.60
68922;DHT22;55959;51.244;5.724;2024-02-14T09:32:24;14.10;76.50
68922;DHT22;55959;51.244;5.724;2024-02-14T09:34:50;14.10;76.60
68922;DHT22;55959;51.244;5.724;2024-02-14T09:37:16;14.20;76.60
68922;DHT22;55959;51.244;5.724;2024-02-14T09:39:42;14.20;76.60
68922;DHT22;55959;51.244;5.724;2024-02-14T09:42:13;14.20;76.80
68922;DHT22;55959;51.244;5.724;2024-02-14T09:44:40;14.20;76.90
68922;DHT22;55959;51.244;5.724;2024-02-14T09:47:06;14.20;77.00
68922;DHT22;55959;51.244;5.724;2024-02-14T09:49:35;14.20;77.10
68922;DHT22;55959;51.244;5.724;2024-02-14T09:52:02;14.20;77.30
68922;DHT22;55959;51.244;5.724;2024-02-14T09:54:29;14.20;77.40
68922;DHT22;55959;51.244;5.724;2024-02-14T09:56:57;14.30;77.60
68922;DHT22;55959;51.244;5.724;2024-02-14T09:59:24;14.30;77.60
68922;DHT22;55959;51.244;5.724;2024-02-14T10:01:49;14.30;77.60
68922;DHT22;55959;51.244;5.724;2024-02-14T10:04:17;14.30;77.70
68922;DHT22;55959;51.244;5.724;2024-02-14T10:06:44;14.30;77.70
68922;DHT22;55959;51.244;5.724;2024-02-14T10:09:10;14.30;77.60
68922;DHT22;55959;51.244;5.724;2024-02-14T10:11:37;14.40;77.60
68922;DHT22;55959;51.244;5.724;2024-02-14T10:14:04;14.40;77.60
68922;DHT22;55959;51.244;5.724;2024-02-14T10:16:35;14.40;77.70
68922;DHT22;55959;51.244;5.724;2024-02-14T10:19:01;14.40;77.60
68922;DHT22;55959;51.244;5.724;2024-02-14T10:21:27;14.40;77.60
68922;DHT22;55959;51.244;5.724;2024-02-14T10:23:54;14.40;77.60
68922;DHT22;55959;51.244;5.724;2024-02-14T10:26:23;14.40;77.50
68922;DHT22;55959;51.244;5.724;2024-02-14T10:28:48;14.40;77.60
68922;DHT22;55959;51.244;5.724;2024-02-14T10:31:17;14.40;78.40
68922;DHT22;55959;51.244;5.724;2024-02-14T10:33:43;14.40;78.60
68922;DHT22;55959;51.244;5.724;2024-02-14T10:36:12;14.50;77.80
68922;DHT22;55959;51.244;5.724;2024-02-14T10:38:39;14.50;77.70
68922;DHT22;55959;51.244;5.724;2024-02-14T10:41:05;14.50;77.70
68922;DHT22;55959;51.244;5.724;2024-02-14T10:43:33;14.50;78.40
68922;DHT22;55959;51.244;5.724;2024-02-14T10:46:07;14.50;77.60
68922;DHT22;55959;51.244;5.724;2024-02-14T10:48:35;14.50;77.60
68922;DHT22;55959;51.244;5.724;2024-02-14T10:51:04;14.60;77.60
68922;DHT22;55959;51.244;5.724;2024-02-14T10:53:33;14.60;77.60
68922;DHT22;55959;51.244;5.724;2024-02-14T10:56:00;14.50;77.60
68922;DHT22;55959;51.244;5.724;2024-02-14T10:58:29;14.50;77.70
68922;DHT22;55959;51.244;5.724;2024-02-14T11:00:56;14.60;77.90
68922;DHT22;55959;51.244;5.724;2024-02-14T11:03:23;14.60;78.00
68922;DHT22;55959;51.244;5.724;2024-02-14T11:05:49;14.60;78.00
68922;DHT22;55959;51.244;5.724;2024-02-14T11:08:24;14.60;78.10
68922;DHT22;55959;51.244;5.724;2024-02-14T11:10:55;14.60;78.10
68922;DHT22;55959;51.244;5.724;2024-02-14T11:13:24;14.70;78.10
68922;DHT22;55959;51.244;5.724;2024-02-14T11:15:53;14.60;78.10
68922;DHT22;55959;51.244;5.724;2024-02-14T11:18:26;14.70;78.20
68922;DHT22;55959;51.244;5.724;2024-02-14T11:20:54;14.70;78.40
68922;DHT22;55959;51.244;5.724;2024-02-14T11:23:23;14.70;78.40
68922;DHT22;55959;51.244;5.724;2024-02-14T11:25:49;14.70;78.40
68922;DHT22;55959;51.244;5.724;2024-02-14T11:28:25;14.70;78.40
68922;DHT22;55959;51.244;5.724;2024-02-14T11:30:51;14.70;78.40
68922;DHT22;55959;51.244;5.724;2024-02-14T11:33:21;14.70;78.40
68922;DHT22;55959;51.244;5.724;2024-02-14T11:35:52;14.70;78.50
68922;DHT22;55959;51.244;5.724;2024-02-14T11:38:27;14.70;78.50
68922;DHT22;55959;51.244;5.724;2024-02-14T11:40:55;14.70;78.60
68922;DHT22;55959;51.244;5.724;2024-02-14T11:43:24;14.70;78.60
68922;DHT22;55959;51.244;5.724;2024-02-14T11:45:50;14.70;78.60
68922;DHT22;55959;51.244;5.724;2024-02-14T11:48:18;14.70;78.60
68922;DHT22;55959;51.244;5.724;2024-02-14T11:50:46;14.70;78.60
68922;DHT22;55959;51.244;5.724;2024-02-14T11:53:15;14.80;78.70
68922;DHT22;55959;51.244;5.724;2024-02-14T11:55:47;14.80;78.50
68922;DHT22;55959;51.244;5.724;2024-02-14T11:58:14;14.80;78.60
68922;DHT22;55959;51.244;5.724;2024-02-14T12:00:43;14.80;78.40
68922;DHT22;55959;51.244;5.724;2024-02-14T12:03:17;14.80;78.50
68922;DHT22;55959;51.244;5.724;2024-02-14T12:05:44;14.80;78.60
68922;DHT22;55959;51.244;5.724;2024-02-14T12:08:13;14.80;79.40
68922;DHT22;55959;51.244;5.724;2024-02-14T12:10:41;14.80;78.50
68922;DHT22;55959;51.244;5.724;2024-02-14T12:13:11;14.80;79.10
68922;DHT22;55959;51.244;5.724;2024-02-14T12:15:43;14.80;78.50
68922;DHT22;55959;51.244;5.724;2024-02-14T12:18:11;14.80;78.40
68922;DHT22;55959;51.244;5.724;2024-02-14T12:20:38;14.90;78.40
68922;DHT22;55959;51.244;5.724;2024-02-14T12:23:04;14.90;78.50
68922;DHT22;55959;51.244;5.724;2024-02-14T12:25:33;14.90;78.40
68922;DHT22;55959;51.244;5.724;2024-02-14T12:28:00;14.90;78.30
68922;DHT22;55959;51.244;5.724;2024-02-14T12:30:43;14.90;78.20
68922;DHT22;55959;51.244;5.724;2024-02-14T12:33:14;14.90;78.20
68922;DHT22;55959;51.244;5.724;2024-02-14T12:35:48;14.90;78.40
68922;DHT22;55959;51.244;5.724;2024-02-14T12:38:15;14.90;78.40
68922;DHT22;55959;51.244;5.724;2024-02-14T12:40:42;14.90;78.40
68922;DHT22;55959;51.244;5.724;2024-02-14T12:43:09;14.90;78.30
68922;DHT22;55959;51.244;5.724;2024-02-14T12:45:39;14.90;78.40
68922;DHT22;55959;51.244;5.724;2024-02-14T12:48:06;14.90;78.40
68922;DHT22;55959;51.244;5.724;2024-02-14T12:50:34;14.90;78.40
68922;DHT22;55959;51.244;5.724;2024-02-14T12:53:01;14.90;78.60
68922;DHT22;55959;51.244;5.724;2024-02-14T12:55:28;15.00;78.80
68922;DHT22;55959;51.244;5.724;2024-02-14T12:57:57;15.00;78.90
68922;DHT22;55959;51.244;5.724;2024-02-14T13:00:23;15.00;79.00
68922;DHT22;55959;51.244;5.724;2024-02-14T13:02:50;15.00;79.00
68922;DHT22;55959;51.244;5.724;2024-02-14T13:05:16;15.00;79.20
68922;DHT22;55959;51.244;5.724;2024-02-14T13:07:43;15.00;79.20
68922;DHT22;55959;51.244;5.724;2024-02-14T13:10:09;15.00;79.20
68922;DHT22;55959;51.244;5.724;2024-02-14T13:12:36;15.00;79.20
68922;DHT22;55959;51.244;5.724;2024-02-14T13:15:03;15.00;79.20
68922;DHT22;55959;51.244;5.724;2024-02-14T13:17:29;15.10;79.30
68922;DHT22;55959;51.244;5.724;2024-02-14T13:19:55;15.10;79.40
68922;DHT22;55959;51.244;5.724;2024-02-14T13:22:21;15.10;79.40
68922;DHT22;55959;51.244;5.724;2024-02-14T13:24:47;15.10;79.50
68922;DHT22;55959;51.244;5.724;2024-02-14T13:27:13;15.10;79.40
68922;DHT22;55959;51.244;5.724;2024-02-14T13:29:39;15.10;79.50
68922;DHT22;55959;51.244;5.724;2024-02-14T13:32:06;15.10;79.40
68922;DHT22;55959;51.244;5.724;2024-02-14T13:34:33;15.10;79.50
68922;DHT22;55959;51.244;5.724;2024-02-14T13:36:59;15.10;79.50
68922;DHT22;55959;51.244;5.724;2024-02-14T13:39:25;15.10;79.60
68922;DHT22;55959;51.244;5.724;2024-02-14T13:41:51;15.10;79.50
68922;DHT22;55959;51.244;5.724;2024-02-14T13:44:17;15.10;79.60
68922;DHT22;55959;51.244;5.724;2024-02-14T13:46:44;15.10;79.60
68922;DHT22;55959;51.244;5.724;2024-02-14T13:49:16;15.10;79.60
68922;DHT22;55959;51.244;5.724;2024-02-14T13:51:48;15.10;79.70
68922;DHT22;55959;51.244;5.724;2024-02-14T13:54:15;15.10;79.80
68922;DHT22;55959;51.244;5.724;2024-02-14T13:56:41;15.10;79.80
68922;DHT22;55959;51.244;5.724;2024-02-14T13:59:07;15.10;79.80
68922;DHT22;55959;51.244;5.724;2024-02-14T14:01:33;15.10;79.80
68922;DHT22;55959;51.244;5.724;2024-02-14T14:03:58;15.10;80.00
68922;DHT22;55959;51.244;5.724;2024-02-14T14:06:24;15.10;80.00
68922;DHT22;55959;51.244;5.724;2024-02-14T14:08:50;15.10;80.00
68922;DHT22;55959;51.244;5.724;2024-02-14T14:11:19;15.10;80.00
68922;DHT22;55959;51.244;5.724;2024-02-14T14:13:45;15.10;80.10
68922;DHT22;55959;51.244;5.724;2024-02-14T14:16:14;15.20;80.10
68922;DHT22;55959;51.244;5.724;2024-02-14T14:18:40;15.20;80.20
68922;DHT22;55959;51.244;5.724;2024-02-14T14:21:06;15.20;80.10
68922;DHT22;55959;51.244;5.724;2024-02-14T14:23:32;15.20;80.10
68922;DHT22;55959;51.244;5.724;2024-02-14T14:25:59;15.20;80.10
68922;DHT22;55959;51.244;5.724;2024-02-14T14:28:26;15.20;80.10
68922;DHT22;55959;51.244;5.724;2024-02-14T14:30:55;15.20;80.20
68922;DHT22;55959;51.244;5.724;2024-02-14T14:33:21;15.20;80.20
68922;DHT22;55959;51.244;5.724;2024-02-14T14:35:48;15.20;81.00
68922;DHT22;55959;51.244;5.724;2024-02-14T14:38:19;15.20;80.20
68922;DHT22;55959;51.244;5.724;2024-02-14T14:40:50;15.20;80.30
68922;DHT22;55959;51.244;5.724;2024-02-14T14:43:18;15.20;80.40
68922;DHT22;55959;51.244;5.724;2024-02-14T14:45:46;15.20;80.40
68922;DHT22;55959;51.244;5.724;2024-02-14T14:48:12;15.20;80.40
68922;DHT22;55959;51.244;5.724;2024-02-14T14:50:38;15.20;80.40
68922;DHT22;55959;51.244;5.724;2024-02-14T14:53:04;15.20;80.50
68922;DHT22;55959;51.244;5.724;2024-02-14T14:55:54;15.20;80.50
68922;DHT22;55959;51.244;5.724;2024-02-14T14:58:21;15.20;80.60
68922;DHT22;55959;51.244;5.724;2024-02-14T15:00:49;15.20;80.60
68922;DHT22;55959;51.244;5.724;2024-02-14T15:03:20;15.20;80.70
68922;DHT22;55959;51.244;5.724;2024-02-14T15:05:46;15.20;80.60
68922;DHT22;55959;51.244;5.724;2024-02-14T15:08:13;15.20;80.60
68922;DHT22;55959;51.244;5.724;2024-02-14T15:10:40;15.20;80.60
68922;DHT22;55959;51.244;5.724;2024-02-14T15:13:09;15.30;80.60
68922;DHT22;55959;51.244;5.724;2024-02-14T15:15:35;15.30;80.60
68922;DHT22;55959;51.244;5.724;2024-02-14T15:18:02;15.30;80.60
68922;DHT22;55959;51.244;5.724;2024-02-14T15:20:28;15.30;80.60
68922;DHT22;55959;51.244;5.724;2024-02-14T15:22:55;15.30;80.60
68922;DHT22;55959;51.244;5.724;2024-02-14T15:25:21;15.30;80.60
68922;DHT22;55959;51.244;5.724;2024-02-14T15:27:50;15.30;80.60